sensor_id;sensor_type;location;lat;lon;timestamp;pressure;altitude;pressure_sealevel;temperature
76394;BMP180;65216;51.090;-115.352;2022-12-07T00:01:47;86196.00;;;20.00
76394;BMP180;65216;51.090;-115.352;2022-12-07T00:04:17;86189.40;;;20.00
76394;BMP180;65216;51.090;-115.352;2022-12-07T00:06:50;86194.60;;;20.00
76394;BMP180;65216;51.090;-115.352;2022-12-07T00:09:23;86199.20;;;20.00
76394;BMP180;65216;51.090;-115.352;2022-12-07T00:11:51;86208.80;;;20.00
76394;BMP180;65216;51.090;-115.352;2022-12-07T00:14:19;86202.40;;;20.00
76394;BMP180;65216;51.090;-115.352;2022-12-07T00:16:49;86205.60;;;20.00
76394;BMP180;65216;51.090;-115.352;2022-12-07T00:19:17;86213.60;;;20.00
76394;BMP180;65216;51.090;-115.352;2022-12-07T00:21:45;86204.20;;;20.00
76394;BMP180;65216;51.090;-115.352;2022-12-07T00:24:12;86209.00;;;20.00
76394;BMP180;65216;51.090;-115.352;2022-12-07T00:26:41;86199.60;;;20.00
76394;BMP180;65216;51.090;-115.352;2022-12-07T00:29:20;86208.40;;;20.00
76394;BMP180;65216;51.090;-115.352;2022-12-07T00:31:48;86193.80;;;20.00
76394;BMP180;65216;51.090;-115.352;2022-12-07T00:34:22;86185.20;;;20.00
76394;BMP180;65216;51.090;-115.352;2022-12-07T00:36:50;86182.80;;;20.00
76394;BMP180;65216;51.090;-115.352;2022-12-07T00:39:17;86192.20;;;20.00
76394;BMP180;65216;51.090;-115.352;2022-12-07T00:41:50;86192.00;;;20.00
76394;BMP180;65216;51.090;-115.352;2022-12-07T00:44:20;86185.40;;;20.00
76394;BMP180;65216;51.090;-115.352;2022-12-07T00:46:53;86185.80;;;20.00
76394;BMP180;65216;51.090;-115.352;2022-12-07T00:49:22;86193.40;;;20.00
76394;BMP180;65216;51.090;-115.352;2022-12-07T00:51:52;86186.40;;;20.00
76394;BMP180;65216;51.090;-115.352;2022-12-07T00:54:20;86189.40;;;20.00
76394;BMP180;65216;51.090;-115.352;2022-12-07T00:56:49;86188.80;;;20.00
76394;BMP180;65216;51.090;-115.352;2022-12-07T00:59:16;86175.00;;;20.00
76394;BMP180;65216;51.090;-115.352;2022-12-07T01:01:49;86204.60;;;20.00
76394;BMP180;65216;51.090;-115.352;2022-12-07T01:04:17;86193.60;;;20.02
76394;BMP180;65216;51.090;-115.352;2022-12-07T01:06:44;86185.80;;;20.00
76394;BMP180;65216;51.090;-115.352;2022-12-07T01:09:12;86172.80;;;20.02
76394;BMP180;65216;51.090;-115.352;2022-12-07T01:11:42;86185.00;;;20.00
76394;BMP180;65216;51.090;-115.352;2022-12-07T01:14:11;86180.40;;;20.06
76394;BMP180;65216;51.090;-115.352;2022-12-07T01:16:39;86170.00;;;20.02
76394;BMP180;65216;51.090;-115.352;2022-12-07T01:19:07;86191.80;;;20.08
76394;BMP180;65216;51.090;-115.352;2022-12-07T01:21:35;86168.40;;;20.10
76394;BMP180;65216;51.090;-115.352;2022-12-07T01:24:11;86169.40;;;20.10
76394;BMP180;65216;51.090;-115.352;2022-12-07T01:26:38;86152.00;;;20.06
76394;BMP180;65216;51.090;-115.352;2022-12-07T01:29:09;86155.40;;;20.08
76394;BMP180;65216;51.090;-115.352;2022-12-07T01:31:36;86166.00;;;20.08
76394;BMP180;65216;51.090;-115.352;2022-12-07T01:34:09;86151.00;;;20.10
76394;BMP180;65216;51.090;-115.352;2022-12-07T01:36:37;86163.00;;;20.10
76394;BMP180;65216;51.090;-115.352;2022-12-07T01:39:07;86162.60;;;20.10
76394;BMP180;65216;51.090;-115.352;2022-12-07T01:41:39;86133.20;;;20.10
76394;BMP180;65216;51.090;-115.352;2022-12-07T01:44:28;86167.60;;;20.08
76394;BMP180;65216;51.090;-115.352;2022-12-07T01:47:03;86143.80;;;20.06
76394;BMP180;65216;51.090;-115.352;2022-12-07T01:52:20;86147.60;;;20.08
76394;BMP180;65216;51.090;-115.352;2022-12-07T01:54:53;86145.80;;;20.06
76394;BMP180;65216;51.090;-115.352;2022-12-07T01:57:22;86135.40;;;20.02
76394;BMP180;65216;51.090;-115.352;2022-12-07T01:59:52;86129.40;;;20.00
76394;BMP180;65216;51.090;-115.352;2022-12-07T02:02:38;86152.60;;;20.00
76394;BMP180;65216;51.090;-115.352;2022-12-07T02:05:07;86151.80;;;20.00
76394;BMP180;65216;51.090;-115.352;2022-12-07T02:07:38;86152.40;;;20.00
76394;BMP180;65216;51.090;-115.352;2022-12-07T02:10:22;86140.60;;;20.00
76394;BMP180;65216;51.090;-115.352;2022-12-07T02:13:24;86162.00;;;20.00
76394;BMP180;65216;51.090;-115.352;2022-12-07T02:22:16;86129.00;;;20.04
76394;BMP180;65216;51.090;-115.352;2022-12-07T02:27:40;86127.60;;;20.00
76394;BMP180;65216;51.090;-115.352;2022-12-07T02:30:20;86150.80;;;20.00
76394;BMP180;65216;51.090;-115.352;2022-12-07T02:33:33;86133.60;;;20.10
76394;BMP180;65216;51.090;-115.352;2022-12-07T02:36:17;86121.60;;;20.10
76394;BMP180;65216;51.090;-115.352;2022-12-07T02:42:06;86124.00;;;20.10
76394;BMP180;65216;51.090;-115.352;2022-12-07T02:44:37;86149.00;;;20.10
76394;BMP180;65216;51.090;-115.352;2022-12-07T02:47:10;86113.20;;;20.10
76394;BMP180;65216;51.090;-115.352;2022-12-07T02:49:40;86111.60;;;20.10
76394;BMP180;65216;51.090;-115.352;2022-12-07T02:52:10;86142.80;;;20.10
76394;BMP180;65216;51.090;-115.352;2022-12-07T02:54:38;86104.60;;;20.10
76394;BMP180;65216;51.090;-115.352;2022-12-07T02:57:25;86111.80;;;20.10
76394;BMP180;65216;51.090;-115.352;2022-12-07T03:00:06;86100.00;;;20.10
76394;BMP180;65216;51.090;-115.352;2022-12-07T03:03:03;86122.40;;;20.10
76394;BMP180;65216;51.090;-115.352;2022-12-07T03:05:44;86084.40;;;20.10
76394;BMP180;65216;51.090;-115.352;2022-12-07T03:08:57;86123.20;;;20.10
76394;BMP180;65216;51.090;-115.352;2022-12-07T03:12:01;86080.40;;;20.10
76394;BMP180;65216;51.090;-115.352;2022-12-07T03:14:47;86104.40;;;20.10
76394;BMP180;65216;51.090;-115.352;2022-12-07T03:17:26;86082.20;;;20.10
76394;BMP180;65216;51.090;-115.352;2022-12-07T03:20:00;86112.80;;;20.10
76394;BMP180;65216;51.090;-115.352;2022-12-07T03:22:32;86098.40;;;20.10
76394;BMP180;65216;51.090;-115.352;2022-12-07T03:25:07;86078.60;;;20.10
76394;BMP180;65216;51.090;-115.352;2022-12-07T03:30:22;86103.00;;;20.10
76394;BMP180;65216;51.090;-115.352;2022-12-07T03:33:20;86083.60;;;20.10
76394;BMP180;65216;51.090;-115.352;2022-12-07T03:36:08;86090.20;;;20.10
76394;BMP180;65216;51.090;-115.352;2022-12-07T03:38:44;86068.20;;;20.10
76394;BMP180;65216;51.090;-115.352;2022-12-07T03:41:23;86085.20;;;20.10
76394;BMP180;65216;51.090;-115.352;2022-12-07T03:43:54;86083.20;;;20.10
76394;BMP180;65216;51.090;-115.352;2022-12-07T03:57:25;86049.40;;;20.00
76394;BMP180;65216;51.090;-115.352;2022-12-07T03:59:55;86062.60;;;20.00
76394;BMP180;65216;51.090;-115.352;2022-12-07T04:02:28;86048.60;;;20.00
76394;BMP180;65216;51.090;-115.352;2022-12-07T04:04:56;86062.40;;;20.00
76394;BMP180;65216;51.090;-115.352;2022-12-07T04:07:24;86043.00;;;20.00
76394;BMP180;65216;51.090;-115.352;2022-12-07T04:09:52;86062.00;;;20.00
76394;BMP180;65216;51.090;-115.352;2022-12-07T04:12:23;86035.00;;;20.00
76394;BMP180;65216;51.090;-115.352;2022-12-07T04:14:50;86053.80;;;20.00
76394;BMP180;65216;51.090;-115.352;2022-12-07T04:17:20;86055.00;;;20.00
76394;BMP180;65216;51.090;-115.352;2022-12-07T04:19:48;86029.20;;;20.00
76394;BMP180;65216;51.090;-115.352;2022-12-07T04:22:15;86045.80;;;20.00
76394;BMP180;65216;51.090;-115.352;2022-12-07T04:24:43;86058.00;;;20.00
76394;BMP180;65216;51.090;-115.352;2022-12-07T04:27:10;86052.00;;;20.00
76394;BMP180;65216;51.090;-115.352;2022-12-07T04:29:41;86036.60;;;19.94
76394;BMP180;65216;51.090;-115.352;2022-12-07T04:32:08;86067.40;;;19.92
76394;BMP180;65216;51.090;-115.352;2022-12-07T04:34:42;86049.20;;;19.92
76394;BMP180;65216;51.090;-115.352;2022-12-07T04:37:09;86054.60;;;19.90
76394;BMP180;65216;51.090;-115.352;2022-12-07T04:39:37;86046.20;;;19.90
76394;BMP180;65216;51.090;-115.352;2022-12-07T04:42:07;86055.60;;;19.90
76394;BMP180;65216;51.090;-115.352;2022-12-07T04:44:35;86039.40;;;19.90
76394;BMP180;65216;51.090;-115.352;2022-12-07T04:47:02;86049.40;;;19.90
76394;BMP180;65216;51.090;-115.352;2022-12-07T04:49:30;86049.80;;;19.90
76394;BMP180;65216;51.090;-115.352;2022-12-07T04:52:00;86064.00;;;19.90
76394;BMP180;65216;51.090;-115.352;2022-12-07T04:54:33;86053.00;;;19.90
76394;BMP180;65216;51.090;-115.352;2022-12-07T04:57:03;86065.00;;;19.90
76394;BMP180;65216;51.090;-115.352;2022-12-07T04:59:31;86045.40;;;19.90
76394;BMP180;65216;51.090;-115.352;2022-12-07T05:01:58;86024.60;;;19.90
76394;BMP180;65216;51.090;-115.352;2022-12-07T05:04:31;86036.40;;;19.90
76394;BMP180;65216;51.090;-115.352;2022-12-07T05:06:59;86031.80;;;19.86
76394;BMP180;65216;51.090;-115.352;2022-12-07T05:09:26;86053.80;;;19.84
76394;BMP180;65216;51.090;-115.352;2022-12-07T05:11:53;86035.20;;;19.84
76394;BMP180;65216;51.090;-115.352;2022-12-07T05:14:22;86036.60;;;19.80
76394;BMP180;65216;51.090;-115.352;2022-12-07T05:16:51;86031.40;;;19.80
76394;BMP180;65216;51.090;-115.352;2022-12-07T05:19:24;86048.20;;;19.80
76394;BMP180;65216;51.090;-115.352;2022-12-07T05:21:53;86017.00;;;19.80
76394;BMP180;65216;51.090;-115.352;2022-12-07T05:24:23;86073.40;;;19.80
76394;BMP180;65216;51.090;-115.352;2022-12-07T05:26:51;86041.60;;;19.80
76394;BMP180;65216;51.090;-115.352;2022-12-07T05:29:21;86031.60;;;19.80
76394;BMP180;65216;51.090;-115.352;2022-12-07T05:31:52;86047.60;;;19.80
76394;BMP180;65216;51.090;-115.352;2022-12-07T05:34:22;86019.00;;;19.78
76394;BMP180;65216;51.090;-115.352;2022-12-07T05:36:53;86046.00;;;19.80
76394;BMP180;65216;51.090;-115.352;2022-12-07T05:39:20;86030.80;;;19.72
76394;BMP180;65216;51.090;-115.352;2022-12-07T05:41:48;86050.60;;;19.76
76394;BMP180;65216;51.090;-115.352;2022-12-07T05:44:34;86058.20;;;19.74
76394;BMP180;65216;51.090;-115.352;2022-12-07T05:47:04;86059.80;;;19.70
76394;BMP180;65216;51.090;-115.352;2022-12-07T05:49:31;86046.00;;;19.70
76394;BMP180;65216;51.090;-115.352;2022-12-07T05:51:59;86074.20;;;19.70
76394;BMP180;65216;51.090;-115.352;2022-12-07T05:54:26;86054.80;;;19.70
76394;BMP180;65216;51.090;-115.352;2022-12-07T05:56:54;86040.20;;;19.70
76394;BMP180;65216;51.090;-115.352;2022-12-07T05:59:24;86055.00;;;19.70
76394;BMP180;65216;51.090;-115.352;2022-12-07T06:02:02;86055.80;;;19.70
76394;BMP180;65216;51.090;-115.352;2022-12-07T06:04:35;86048.20;;;19.70
76394;BMP180;65216;51.090;-115.352;2022-12-07T06:07:06;86035.20;;;19.70
76394;BMP180;65216;51.090;-115.352;2022-12-07T06:09:35;86060.60;;;19.70
76394;BMP180;65216;51.090;-115.352;2022-12-07T06:12:03;86060.60;;;19.70
76394;BMP180;65216;51.090;-115.352;2022-12-07T06:14:48;86052.20;;;19.70
76394;BMP180;65216;51.090;-115.352;2022-12-07T06:17:16;86058.20;;;19.70
76394;BMP180;65216;51.090;-115.352;2022-12-07T06:19:47;86050.60;;;19.70
76394;BMP180;65216;51.090;-115.352;2022-12-07T06:22:18;86065.00;;;19.66
76394;BMP180;65216;51.090;-115.352;2022-12-07T06:24:48;86080.00;;;19.62
76394;BMP180;65216;51.090;-115.352;2022-12-07T06:27:16;86068.20;;;19.60
76394;BMP180;65216;51.090;-115.352;2022-12-07T06:29:44;86073.00;;;19.60
76394;BMP180;65216;51.090;-115.352;2022-12-07T06:32:11;86063.40;;;19.60
76394;BMP180;65216;51.090;-115.352;2022-12-07T06:34:41;86062.80;;;19.60
76394;BMP180;65216;51.090;-115.352;2022-12-07T06:37:09;86063.20;;;19.60
76394;BMP180;65216;51.090;-115.352;2022-12-07T06:39:39;86069.40;;;19.60
76394;BMP180;65216;51.090;-115.352;2022-12-07T06:42:06;86082.60;;;19.60
76394;BMP180;65216;51.090;-115.352;2022-12-07T06:44:34;86067.40;;;19.60
76394;BMP180;65216;51.090;-115.352;2022-12-07T06:47:01;86084.00;;;19.60
76394;BMP180;65216;51.090;-115.352;2022-12-07T06:49:32;86064.00;;;19.60
76394;BMP180;65216;51.090;-115.352;2022-12-07T06:52:02;86098.40;;;19.60
76394;BMP180;65216;51.090;-115.352;2022-12-07T06:54:31;86084.40;;;19.60
76394;BMP180;65216;51.090;-115.352;2022-12-07T06:56:58;86078.20;;;19.60
76394;BMP180;65216;51.090;-115.352;2022-12-07T06:59:26;86092.00;;;19.60
76394;BMP180;65216;51.090;-115.352;2022-12-07T07:01:53;86081.20;;;19.60
76394;BMP180;65216;51.090;-115.352;2022-12-07T07:04:24;86090.40;;;19.60
76394;BMP180;65216;51.090;-115.352;2022-12-07T07:06:54;86086.60;;;19.60
76394;BMP180;65216;51.090;-115.352;2022-12-07T07:09:22;86087.20;;;19.60
76394;BMP180;65216;51.090;-115.352;2022-12-07T07:11:52;86095.40;;;19.60
76394;BMP180;65216;51.090;-115.352;2022-12-07T07:14:20;86089.40;;;19.60
76394;BMP180;65216;51.090;-115.352;2022-12-07T07:16:48;86092.00;;;19.60
76394;BMP180;65216;51.090;-115.352;2022-12-07T07:19:19;86094.60;;;19.60
76394;BMP180;65216;51.090;-115.352;2022-12-07T07:21:46;86073.60;;;19.56
76394;BMP180;65216;51.090;-115.352;2022-12-07T07:24:14;86084.00;;;19.50
76394;BMP180;65216;51.090;-115.352;2022-12-07T07:26:41;86087.20;;;19.54
76394;BMP180;65216;51.090;-115.352;2022-12-07T07:29:11;86087.60;;;19.58
76394;BMP180;65216;51.090;-115.352;2022-12-07T07:31:41;86084.60;;;19.60
76394;BMP180;65216;51.090;-115.352;2022-12-07T07:34:08;86084.20;;;19.60
76394;BMP180;65216;51.090;-115.352;2022-12-07T07:36:36;86095.60;;;19.60
76394;BMP180;65216;51.090;-115.352;2022-12-07T07:39:06;86099.00;;;19.58
76394;BMP180;65216;51.090;-115.352;2022-12-07T07:41:33;86112.00;;;19.60
76394;BMP180;65216;51.090;-115.352;2022-12-07T07:44:00;86112.60;;;19.58
76394;BMP180;65216;51.090;-115.352;2022-12-07T07:46:28;86109.00;;;19.60
76394;BMP180;65216;51.090;-115.352;2022-12-07T07:48:55;86104.40;;;19.60
76394;BMP180;65216;51.090;-115.352;2022-12-07T07:51:23;86103.00;;;19.60
76394;BMP180;65216;51.090;-115.352;2022-12-07T07:53:53;86114.60;;;19.56
76394;BMP180;65216;51.090;-115.352;2022-12-07T07:56:23;86105.60;;;19.58
76394;BMP180;65216;51.090;-115.352;2022-12-07T07:58:54;86107.80;;;19.60
76394;BMP180;65216;51.090;-115.352;2022-12-07T08:01:22;86103.80;;;19.60
76394;BMP180;65216;51.090;-115.352;2022-12-07T08:03:49;86101.20;;;19.60
76394;BMP180;65216;51.090;-115.352;2022-12-07T08:06:20;86104.60;;;19.60
76394;BMP180;65216;51.090;-115.352;2022-12-07T08:08:47;86101.40;;;19.60
76394;BMP180;65216;51.090;-115.352;2022-12-07T08:11:14;86097.40;;;19.60
76394;BMP180;65216;51.090;-115.352;2022-12-07T08:13:44;86101.20;;;19.60
76394;BMP180;65216;51.090;-115.352;2022-12-07T08:16:14;86103.40;;;19.60
76394;BMP180;65216;51.090;-115.352;2022-12-07T08:18:44;86107.20;;;19.60
76394;BMP180;65216;51.090;-115.352;2022-12-07T08:21:15;86110.20;;;19.60
76394;BMP180;65216;51.090;-115.352;2022-12-07T08:23:42;86098.40;;;19.60
76394;BMP180;65216;51.090;-115.352;2022-12-07T08:26:15;86108.20;;;19.60
76394;BMP180;65216;51.090;-115.352;2022-12-07T08:28:45;86110.20;;;19.60
76394;BMP180;65216;51.090;-115.352;2022-12-07T08:31:17;86104.20;;;19.60
76394;BMP180;65216;51.090;-115.352;2022-12-07T08:33:49;86103.60;;;19.60
76394;BMP180;65216;51.090;-115.352;2022-12-07T08:36:19;86109.60;;;19.60
76394;BMP180;65216;51.090;-115.352;2022-12-07T08:38:50;86106.20;;;19.60
76394;BMP180;65216;51.090;-115.352;2022-12-07T08:41:21;86113.00;;;19.60
76394;BMP180;65216;51.090;-115.352;2022-12-07T08:43:52;86119.20;;;19.60
76394;BMP180;65216;51.090;-115.352;2022-12-07T08:49:41;86114.00;;;19.60
76394;BMP180;65216;51.090;-115.352;2022-12-07T08:52:13;86123.80;;;19.60
76394;BMP180;65216;51.090;-115.352;2022-12-07T08:54:44;86120.40;;;19.60
76394;BMP180;65216;51.090;-115.352;2022-12-07T08:57:15;86120.80;;;19.60
76394;BMP180;65216;51.090;-115.352;2022-12-07T08:59:42;86133.00;;;19.60
76394;BMP180;65216;51.090;-115.352;2022-12-07T09:02:10;86142.00;;;19.60
76394;BMP180;65216;51.090;-115.352;2022-12-07T09:04:37;86147.60;;;19.60
76394;BMP180;65216;51.090;-115.352;2022-12-07T09:07:05;86148.60;;;19.60
76394;BMP180;65216;51.090;-115.352;2022-12-07T09:09:35;86136.80;;;19.60
76394;BMP180;65216;51.090;-115.352;2022-12-07T09:12:02;86136.20;;;19.60
76394;BMP180;65216;51.090;-115.352;2022-12-07T09:14:36;86140.60;;;19.60
76394;BMP180;65216;51.090;-115.352;2022-12-07T09:17:13;86165.00;;;19.60
76394;BMP180;65216;51.090;-115.352;2022-12-07T09:19:40;86133.80;;;19.60
76394;BMP180;65216;51.090;-115.352;2022-12-07T09:22:11;86148.80;;;19.60
76394;BMP180;65216;51.090;-115.352;2022-12-07T09:24:41;86151.00;;;19.60
76394;BMP180;65216;51.090;-115.352;2022-12-07T09:27:12;86154.20;;;19.60
76394;BMP180;65216;51.090;-115.352;2022-12-07T09:29:39;86157.00;;;19.60
76394;BMP180;65216;51.090;-115.352;2022-12-07T09:32:07;86162.00;;;19.60
76394;BMP180;65216;51.090;-115.352;2022-12-07T09:34:37;86155.20;;;19.60
76394;BMP180;65216;51.090;-115.352;2022-12-07T09:37:05;86145.20;;;19.60
76394;BMP180;65216;51.090;-115.352;2022-12-07T09:39:37;86151.40;;;19.60
76394;BMP180;65216;51.090;-115.352;2022-12-07T09:42:06;86166.00;;;19.60
76394;BMP180;65216;51.090;-115.352;2022-12-07T09:44:36;86163.60;;;19.60
76394;BMP180;65216;51.090;-115.352;2022-12-07T09:47:03;86164.60;;;19.60
76394;BMP180;65216;51.090;-115.352;2022-12-07T09:49:32;86173.40;;;19.60
76394;BMP180;65216;51.090;-115.352;2022-12-07T09:52:20;86162.00;;;19.60
76394;BMP180;65216;51.090;-115.352;2022-12-07T09:54:54;86167.80;;;19.60
76394;BMP180;65216;51.090;-115.352;2022-12-07T09:57:31;86173.00;;;19.60
76394;BMP180;65216;51.090;-115.352;2022-12-07T10:00:19;86159.00;;;19.60
76394;BMP180;65216;51.090;-115.352;2022-12-07T10:02:58;86166.60;;;19.60
76394;BMP180;65216;51.090;-115.352;2022-12-07T10:05:40;86170.00;;;19.60
76394;BMP180;65216;51.090;-115.352;2022-12-07T10:08:13;86186.20;;;19.60
76394;BMP180;65216;51.090;-115.352;2022-12-07T10:10:41;86188.80;;;19.60
76394;BMP180;65216;51.090;-115.352;2022-12-07T10:13:11;86192.80;;;19.60
76394;BMP180;65216;51.090;-115.352;2022-12-07T10:15:49;86195.20;;;19.60
76394;BMP180;65216;51.090;-115.352;2022-12-07T10:18:40;86214.80;;;19.60
76394;BMP180;65216;51.090;-115.352;2022-12-07T10:21:27;86204.80;;;19.60
76394;BMP180;65216;51.090;-115.352;2022-12-07T10:29:33;86222.00;;;19.60
76394;BMP180;65216;51.090;-115.352;2022-12-07T10:34:45;86212.80;;;19.60
76394;BMP180;65216;51.090;-115.352;2022-12-07T10:37:21;86224.00;;;19.60
76394;BMP180;65216;51.090;-115.352;2022-12-07T10:39:57;86230.00;;;19.60
76394;BMP180;65216;51.090;-115.352;2022-12-07T10:45:17;86237.60;;;19.60
76394;BMP180;65216;51.090;-115.352;2022-12-07T10:48:26;86243.60;;;19.60
76394;BMP180;65216;51.090;-115.352;2022-12-07T10:54:54;86225.00;;;19.60
76394;BMP180;65216;51.090;-115.352;2022-12-07T10:58:04;86241.40;;;19.60
76394;BMP180;65216;51.090;-115.352;2022-12-07T11:02:08;86214.40;;;19.60
76394;BMP180;65216;51.090;-115.352;2022-12-07T11:15:47;86232.60;;;19.50
76394;BMP180;65216;51.090;-115.352;2022-12-07T11:18:36;86244.40;;;19.50
76394;BMP180;65216;51.090;-115.352;2022-12-07T11:27:11;86248.00;;;19.40
76394;BMP180;65216;51.090;-115.352;2022-12-07T11:30:14;86256.80;;;19.40
76394;BMP180;65216;51.090;-115.352;2022-12-07T11:33:27;86248.80;;;19.40
76394;BMP180;65216;51.090;-115.352;2022-12-07T11:36:36;86250.40;;;19.40
76394;BMP180;65216;51.090;-115.352;2022-12-07T11:39:35;86266.40;;;19.36
76394;BMP180;65216;51.090;-115.352;2022-12-07T11:42:26;86266.00;;;19.30
76394;BMP180;65216;51.090;-115.352;2022-12-07T11:45:42;86271.20;;;19.30
76394;BMP180;65216;51.090;-115.352;2022-12-07T11:48:22;86274.40;;;19.30
76394;BMP180;65216;51.090;-115.352;2022-12-07T11:51:01;86272.40;;;19.30
76394;BMP180;65216;51.090;-115.352;2022-12-07T11:53:51;86274.00;;;19.30
76394;BMP180;65216;51.090;-115.352;2022-12-07T11:56:27;86278.80;;;19.30
76394;BMP180;65216;51.090;-115.352;2022-12-07T11:59:17;86277.20;;;19.30
76394;BMP180;65216;51.090;-115.352;2022-12-07T12:04:50;86279.40;;;19.30
76394;BMP180;65216;51.090;-115.352;2022-12-07T12:07:24;86275.60;;;19.30
76394;BMP180;65216;51.090;-115.352;2022-12-07T12:10:06;86290.20;;;19.26
76394;BMP180;65216;51.090;-115.352;2022-12-07T12:21:30;86299.80;;;19.20
76394;BMP180;65216;51.090;-115.352;2022-12-07T12:24:27;86306.60;;;19.20
76394;BMP180;65216;51.090;-115.352;2022-12-07T12:27:08;86301.60;;;19.20
76394;BMP180;65216;51.090;-115.352;2022-12-07T12:29:43;86303.80;;;19.20
76394;BMP180;65216;51.090;-115.352;2022-12-07T12:32:44;86313.80;;;19.20
76394;BMP180;65216;51.090;-115.352;2022-12-07T12:35:35;86312.80;;;19.20
76394;BMP180;65216;51.090;-115.352;2022-12-07T12:38:31;86319.80;;;19.20
76394;BMP180;65216;51.090;-115.352;2022-12-07T12:41:01;86321.40;;;19.20
76394;BMP180;65216;51.090;-115.352;2022-12-07T12:43:59;86320.60;;;19.20
76394;BMP180;65216;51.090;-115.352;2022-12-07T12:51:49;86323.80;;;19.20
76394;BMP180;65216;51.090;-115.352;2022-12-07T12:54:20;86322.20;;;19.20
76394;BMP180;65216;51.090;-115.352;2022-12-07T13:02:37;86332.60;;;19.20
76394;BMP180;65216;51.090;-115.352;2022-12-07T13:08:00;86332.00;;;19.24
76394;BMP180;65216;51.090;-115.352;2022-12-07T13:15:54;86350.20;;;19.30
76394;BMP180;65216;51.090;-115.352;2022-12-07T13:33:59;86342.80;;;19.30
76394;BMP180;65216;51.090;-115.352;2022-12-07T13:36:38;86349.80;;;19.30
76394;BMP180;65216;51.090;-115.352;2022-12-07T13:39:20;86334.60;;;19.30
76394;BMP180;65216;51.090;-115.352;2022-12-07T13:41:57;86347.60;;;19.30
76394;BMP180;65216;51.090;-115.352;2022-12-07T13:44:27;86344.80;;;19.30
76394;BMP180;65216;51.090;-115.352;2022-12-07T13:47:17;86351.00;;;19.30
76394;BMP180;65216;51.090;-115.352;2022-12-07T13:49:56;86345.60;;;19.30
76394;BMP180;65216;51.090;-115.352;2022-12-07T13:52:30;86349.80;;;19.30
76394;BMP180;65216;51.090;-115.352;2022-12-07T13:55:13;86354.80;;;19.30
76394;BMP180;65216;51.090;-115.352;2022-12-07T13:57:41;86352.40;;;19.30
76394;BMP180;65216;51.090;-115.352;2022-12-07T14:00:28;86367.00;;;19.30
76394;BMP180;65216;51.090;-115.352;2022-12-07T14:05:42;86370.60;;;19.34
76394;BMP180;65216;51.090;-115.352;2022-12-07T14:16:34;86377.80;;;19.30
76394;BMP180;65216;51.090;-115.352;2022-12-07T14:19:05;86374.80;;;19.30
76394;BMP180;65216;51.090;-115.352;2022-12-07T14:21:34;86381.00;;;19.30
76394;BMP180;65216;51.090;-115.352;2022-12-07T14:24:18;86389.40;;;19.30
76394;BMP180;65216;51.090;-115.352;2022-12-07T14:26:50;86388.80;;;19.34
76394;BMP180;65216;51.090;-115.352;2022-12-07T14:31:57;86402.60;;;19.36
76394;BMP180;65216;51.090;-115.352;2022-12-07T14:34:25;86392.80;;;19.32
76394;BMP180;65216;51.090;-115.352;2022-12-07T14:36:53;86401.00;;;19.36
76394;BMP180;65216;51.090;-115.352;2022-12-07T14:39:23;86414.60;;;19.32
76394;BMP180;65216;51.090;-115.352;2022-12-07T14:41:56;86408.40;;;19.36
76394;BMP180;65216;51.090;-115.352;2022-12-07T14:44:24;86408.00;;;19.36
76394;BMP180;65216;51.090;-115.352;2022-12-07T14:46:55;86405.00;;;19.40
76394;BMP180;65216;51.090;-115.352;2022-12-07T14:49:22;86418.00;;;19.40
76394;BMP180;65216;51.090;-115.352;2022-12-07T14:51:50;86432.00;;;19.38
76394;BMP180;65216;51.090;-115.352;2022-12-07T14:54:26;86420.80;;;19.40
76394;BMP180;65216;51.090;-115.352;2022-12-07T14:56:54;86417.20;;;19.40
76394;BMP180;65216;51.090;-115.352;2022-12-07T14:59:25;86428.80;;;19.40
76394;BMP180;65216;51.090;-115.352;2022-12-07T15:01:52;86429.80;;;19.40
76394;BMP180;65216;51.090;-115.352;2022-12-07T15:04:20;86436.60;;;19.40
76394;BMP180;65216;51.090;-115.352;2022-12-07T15:07:03;86425.60;;;19.40
76394;BMP180;65216;51.090;-115.352;2022-12-07T15:09:31;86432.80;;;19.40
76394;BMP180;65216;51.090;-115.352;2022-12-07T15:12:01;86434.40;;;19.40
76394;BMP180;65216;51.090;-115.352;2022-12-07T15:14:32;86451.80;;;19.40
76394;BMP180;65216;51.090;-115.352;2022-12-07T15:17:00;86442.80;;;19.40
76394;BMP180;65216;51.090;-115.352;2022-12-07T15:19:27;86450.60;;;19.40
76394;BMP180;65216;51.090;-115.352;2022-12-07T15:21:58;86455.80;;;19.40
76394;BMP180;65216;51.090;-115.352;2022-12-07T15:24:27;86454.00;;;19.40
76394;BMP180;65216;51.090;-115.352;2022-12-07T15:26:57;86456.80;;;19.40
76394;BMP180;65216;51.090;-115.352;2022-12-07T15:29:27;86460.60;;;19.40
76394;BMP180;65216;51.090;-115.352;2022-12-07T15:31:55;86444.80;;;19.40
76394;BMP180;65216;51.090;-115.352;2022-12-07T15:34:26;86437.00;;;19.40
76394;BMP180;65216;51.090;-115.352;2022-12-07T15:36:55;86461.80;;;19.40
76394;BMP180;65216;51.090;-115.352;2022-12-07T15:39:25;86467.60;;;19.40
76394;BMP180;65216;51.090;-115.352;2022-12-07T15:41:52;86464.20;;;19.40
76394;BMP180;65216;51.090;-115.352;2022-12-07T15:44:20;86469.60;;;19.40
76394;BMP180;65216;51.090;-115.352;2022-12-07T15:47:06;86464.20;;;19.40
76394;BMP180;65216;51.090;-115.352;2022-12-07T15:49:34;86482.00;;;19.40
76394;BMP180;65216;51.090;-115.352;2022-12-07T15:52:04;86491.60;;;19.40
76394;BMP180;65216;51.090;-115.352;2022-12-07T15:54:31;86479.00;;;19.40
76394;BMP180;65216;51.090;-115.352;2022-12-07T15:57:01;86487.60;;;19.40
76394;BMP180;65216;51.090;-115.352;2022-12-07T15:59:29;86494.00;;;19.40
76394;BMP180;65216;51.090;-115.352;2022-12-07T16:01:57;86503.60;;;19.40
76394;BMP180;65216;51.090;-115.352;2022-12-07T16:04:26;86493.40;;;19.40
76394;BMP180;65216;51.090;-115.352;2022-12-07T16:06:56;86498.40;;;19.44
76394;BMP180;65216;51.090;-115.352;2022-12-07T16:09:24;86512.60;;;19.50
76394;BMP180;65216;51.090;-115.352;2022-12-07T16:11:52;86516.20;;;19.50